Time;durP1;ratioP1;P1;durP2;ratioP2;P2;SDS_P1;SDS_P2;PMS_P1;PMS_P2;Temp;Humidity;BMP_temperature;BMP_pressure;BME280_temperature;BME280_humidity;BME280_pressure;Samples;Min_cycle;Max_cycle;Signal;HPM_P1;HPM_P2
2022/04/20 00:00:27;;;;;;;2.67;1.13;;;9.00;77.80;;;;;;4954897;29;20036;-89
2022/04/20 00:02:53;;;;;;;2.78;1.10;;;8.90;78.20;;;;;;4924449;29;20522;-88
2022/04/20 00:05:19;;;;;;;3.25;1.10;;;9.00;78.20;;;;;;4954972;29;20038;-89
2022/04/20 00:07:44;;;;;;;2.20;0.90;;;8.80;78.70;;;;;;4953972;28;20036;-87
2022/04/20 00:10:10;;;;;;;1.80;1.00;;;8.80;79.10;;;;;;4923691;29;20036;-88
2022/04/20 00:12:36;;;;;;;2.75;1.10;;;8.70;79.70;;;;;;4924011;29;20035;-88
2022/04/20 00:15:02;;;;;;;2.60;0.98;;;8.70;80.00;;;;;;4933929;29;20032;-88
2022/04/20 00:17:27;;;;;;;3.42;1.20;;;8.70;80.20;;;;;;4901878;29;20443;-88
2022/04/20 00:19:53;;;;;;;4.53;1.40;;;8.70;80.50;;;;;;4904818;29;20139;-88
2022/04/20 00:22:19;;;;;;;2.92;1.10;;;8.70;80.70;;;;;;4904508;29;20035;-87
2022/04/20 00:24:44;;;;;;;2.35;1.25;;;8.60;81.10;;;;;;4909042;29;20470;-89
2022/04/20 00:27:10;;;;;;;4.22;1.17;;;8.60;81.30;;;;;;4953208;28;20036;-88
2022/04/20 00:29:36;;;;;;;3.30;1.38;;;8.60;81.40;;;;;;4922280;29;20044;-88
2022/04/20 00:32:01;;;;;;;2.75;1.10;;;8.60;81.90;;;;;;4922165;29;20028;-88
2022/04/20 00:34:27;;;;;;;4.45;2.60;;;8.60;81.60;;;;;;4918619;29;20048;-88
2022/04/20 00:36:53;;;;;;;1.98;1.02;;;8.50;81.70;;;;;;4902273;29;20040;-88
2022/04/20 00:39:20;;;;;;;2.95;1.05;;;8.50;82.10;;;;;;4902302;29;20439;-88
2022/04/20 00:41:45;;;;;;;2.10;1.17;;;8.40;82.30;;;;;;4901673;29;20029;-88
2022/04/20 00:44:12;;;;;;;2.50;1.05;;;8.40;82.30;;;;;;4902130;29;20578;-88
2022/04/20 00:46:40;;;;;;;1.80;0.90;;;8.40;82.60;;;;;;4902566;29;20031;-89
2022/04/20 00:49:06;;;;;;;2.83;1.02;;;8.40;83.10;;;;;;4902916;29;20036;-88
2022/04/20 00:51:33;;;;;;;3.03;1.23;;;8.40;82.50;;;;;;4912045;29;20039;-88
2022/04/20 00:54:02;;;;;;;4.03;0.90;;;8.40;82.50;;;;;;4921019;29;20028;-88
2022/04/20 00:56:28;;;;;;;1.70;0.80;;;8.40;82.70;;;;;;4921118;29;20510;-87
2022/04/20 00:58:58;;;;;;;3.17;1.00;;;8.30;82.90;;;;;;4953183;29;20070;-87
2022/04/20 01:01:26;;;;;;;3.17;1.20;;;8.30;82.60;;;;;;4912467;29;20458;-89
2022/04/20 01:03:53;;;;;;;2.55;0.93;;;8.20;82.70;;;;;;4918643;29;20029;-88
2022/04/20 01:06:19;;;;;;;1.83;0.95;;;8.30;82.90;;;;;;4902792;29;20511;-88
2022/04/20 01:08:44;;;;;;;3.50;1.25;;;8.30;83.00;;;;;;4919616;29;20067;-89
2022/04/20 01:11:10;;;;;;;3.88;1.02;;;8.30;83.10;;;;;;4921631;29;20505;-88
2022/04/20 01:13:36;;;;;;;3.88;1.30;;;8.20;83.50;;;;;;4922396;29;20102;-88
2022/04/20 01:16:04;;;;;;;3.53;1.27;;;8.20;83.40;;;;;;4922291;29;20024;-89
2022/04/20 01:18:30;;;;;;;2.88;1.30;;;8.10;83.70;;;;;;4921223;29;20031;-88
2022/04/20 01:20:56;;;;;;;2.33;1.08;;;8.10;83.80;;;;;;4922157;29;20028;-88
2022/04/20 01:23:21;;;;;;;2.08;1.00;;;8.20;84.30;;;;;;4953031;29;20044;-88
2022/04/20 01:25:50;;;;;;;1.85;0.90;;;8.00;84.50;;;;;;4920657;29;20028;-87
2022/04/20 01:28:17;;;;;;;2.40;1.00;;;7.90;84.40;;;;;;4915764;29;20047;-89
2022/04/20 01:30:42;;;;;;;3.47;1.15;;;7.90;84.90;;;;;;4921519;29;20058;-89
2022/04/20 01:33:08;;;;;;;4.00;1.30;;;7.80;85.10;;;;;;4920415;29;20654;-89
2022/04/20 01:35:34;;;;;;;2.67;0.95;;;7.70;85.80;;;;;;4921307;29;20024;-89
2022/04/20 01:37:59;;;;;;;4.20;1.10;;;7.80;85.50;;;;;;4919363;29;20024;-88
2022/04/20 01:40:25;;;;;;;3.00;1.10;;;7.70;85.80;;;;;;4919902;29;20402;-88
2022/04/20 01:42:50;;;;;;;2.33;0.93;;;7.60;86.00;;;;;;4916421;29;20693;-88
2022/04/20 01:45:16;;;;;;;1.73;0.95;;;7.60;86.20;;;;;;4934272;29;20032;-88
2022/04/20 01:47:42;;;;;;;2.58;1.17;;;7.70;86.30;;;;;;4920587;29;20084;-89
2022/04/20 01:50:08;;;;;;;1.80;0.80;;;7.60;86.40;;;;;;4920480;29;20035;-88
2022/04/20 01:52:33;;;;;;;2.65;1.17;;;7.60;86.50;;;;;;4921905;29;20167;-89
2022/04/20 01:54:59;;;;;;;3.10;1.38;;;7.60;86.60;;;;;;4922621;29;20506;-89
2022/04/20 01:57:25;;;;;;;1.70;0.85;;;7.60;86.60;;;;;;4930824;23;20460;-87
2022/04/20 01:59:53;;;;;;;4.28;1.05;;;7.60;86.50;;;;;;4896968;29;20036;-87
2022/04/20 02:05:04;;;;;;;2.20;0.90;;;7.50;87.10;;;;;;4907642;29;20451;-87
2022/04/20 02:07:30;;;;;;;2.97;1.00;;;7.40;87.40;;;;;;4906469;29;20033;-87
2022/04/20 02:09:55;;;;;;;3.75;1.60;;;7.30;87.80;;;;;;4879253;29;20093;-87
2022/04/20 02:12:24;;;;;;;2.00;0.80;;;7.50;88.20;;;;;;4879131;29;20136;-87
2022/04/20 02:14:50;;;;;;;2.40;1.25;;;7.30;88.20;;;;;;4881678;29;20028;-87
2022/04/20 02:17:16;;;;;;;5.75;1.40;;;7.30;88.40;;;;;;4898836;29;20096;-86
2022/04/20 02:19:41;;;;;;;3.33;0.93;;;7.40;88.70;;;;;;4897639;29;20031;-87
2022/04/20 02:22:07;;;;;;;2.70;1.00;;;7.30;88.70;;;;;;4906312;29;20514;-87
2022/04/20 02:24:33;;;;;;;1.70;1.02;;;7.30;88.70;;;;;;4897529;29;20032;-86
2022/04/20 02:26:59;;;;;;;2.17;0.90;;;7.30;88.70;;;;;;4923044;29;20126;-87
2022/04/20 02:29:24;;;;;;;2.42;1.10;;;7.40;88.90;;;;;;4899429;29;20407;-87
2022/04/20 02:31:50;;;;;;;1.83;0.85;;;7.40;88.70;;;;;;4905826;29;20032;-86
2022/04/20 02:34:18;;;;;;;2.60;1.10;;;7.30;88.70;;;;;;4895079;29;20061;-86
2022/04/20 02:36:44;;;;;;;2.92;1.10;;;7.20;88.80;;;;;;4892814;29;20120;-87
2022/04/20 02:39:11;;;;;;;2.03;1.10;;;7.20;88.80;;;;;;4895675;29;20057;-86
2022/04/20 02:41:44;;;;;;;4.10;0.90;;;7.10;88.70;;;;;;4898749;29;20052;-86
2022/04/20 02:44:19;;;;;;;2.50;0.93;;;7.10;89.20;;;;;;4896207;29;20037;-86
2022/04/20 02:46:45;;;;;;;2.40;0.85;;;7.20;89.40;;;;;;4885426;29;20040;-86
2022/04/20 02:49:14;;;;;;;3.22;1.40;;;7.00;89.50;;;;;;4886684;29;20589;-86
2022/04/20 02:51:43;;;;;;;3.55;0.95;;;7.00;89.10;;;;;;4884576;29;20085;-87
2022/04/20 02:54:12;;;;;;;1.60;0.80;;;7.10;89.60;;;;;;4884864;29;20037;-86
2022/04/20 02:56:38;;;;;;;3.78;0.90;;;7.00;89.40;;;;;;4905811;29;20098;-87
2022/04/20 02:59:03;;;;;;;2.13;1.00;;;6.90;89.50;;;;;;4905571;29;20404;-87
2022/04/20 03:01:30;;;;;;;1.73;0.88;;;7.20;89.80;;;;;;4883442;29;20032;-87
2022/04/20 03:03:58;;;;;;;2.55;0.90;;;7.20;89.20;;;;;;4901612;29;20032;-86
2022/04/20 03:06:23;;;;;;;3.03;1.05;;;7.10;89.10;;;;;;4900652;29;20032;-87
2022/04/20 03:08:49;;;;;;;3.47;1.05;;;7.00;89.50;;;;;;4901260;29;20388;-87
2022/04/20 03:11:17;;;;;;;2.38;1.00;;;6.90;89.60;;;;;;4887866;29;20040;-86
2022/04/20 03:13:44;;;;;;;2.50;0.93;;;7.00;89.70;;;;;;4882229;29;20021;-86
2022/04/20 03:16:09;;;;;;;2.17;1.10;;;6.90;89.40;;;;;;4882029;29;20032;-86
2022/04/20 03:18:38;;;;;;;1.67;0.77;;;6.90;89.30;;;;;;4892101;29;20116;-86
2022/04/20 03:21:03;;;;;;;1.95;0.90;;;6.80;89.50;;;;;;4900732;29;20404;-86
2022/04/20 03:23:35;;;;;;;2.55;0.90;;;7.00;89.80;;;;;;4902016;29;20040;-87
2022/04/20 03:26:01;;;;;;;2.28;0.90;;;6.70;89.30;;;;;;4899355;29;20084;-86
2022/04/20 03:28:27;;;;;;;4.53;0.90;;;6.70;89.80;;;;;;4881916;29;20128;-86
2022/04/20 03:30:53;;;;;;;2.10;0.85;;;6.70;89.60;;;;;;4881900;29;20033;-86
2022/04/20 03:33:18;;;;;;;1.25;0.50;;;6.70;89.50;;;;;;4881909;29;20036;-86
2022/04/20 03:35:44;;;;;;;3.00;1.02;;;6.80;89.70;;;;;;4895147;29;20044;-86
2022/04/20 03:38:10;;;;;;;1.90;0.80;;;6.70;89.60;;;;;;4900497;29;20107;-86
2022/04/20 03:40:36;;;;;;;1.45;0.70;;;6.70;88.90;;;;;;4902363;29;20046;-86
2022/04/20 03:43:02;;;;;;;2.15;0.68;;;6.70;89.50;;;;;;4897721;29;20474;-86
2022/04/20 03:45:28;;;;;;;1.73;0.88;;;6.70;89.40;;;;;;4882730;29;20132;-86
2022/04/20 03:47:54;;;;;;;3.92;0.73;;;6.70;88.70;;;;;;4881614;29;20064;-86
2022/04/20 03:50:19;;;;;;;2.10;0.70;;;6.70;88.50;;;;;;4881779;29;20029;-85
2022/04/20 03:52:45;;;;;;;1.92;0.88;;;6.60;88.60;;;;;;4882456;29;20100;-86
2022/04/20 03:55:11;;;;;;;3.95;0.90;;;6.60;88.90;;;;;;4882750;29;20116;-86
2022/04/20 03:57:37;;;;;;;2.72;0.80;;;6.60;89.00;;;;;;4917138;29;20032;-86
2022/04/20 04:00:07;;;;;;;1.77;0.60;;;6.60;88.40;;;;;;4914452;29;20503;-86
2022/04/20 04:02:32;;;;;;;3.67;0.80;;;6.60;88.50;;;;;;4881529;29;20036;-87
2022/04/20 04:04:58;;;;;;;1.48;0.85;;;6.60;88.70;;;;;;4896695;29;20029;-85
2022/04/20 04:07:23;;;;;;;2.50;0.73;;;6.60;88.60;;;;;;4880022;29;20032;-86
2022/04/20 04:09:49;;;;;;;2.65;0.88;;;6.50;88.70;;;;;;4881575;29;20033;-86
2022/04/20 04:12:15;;;;;;;1.88;0.77;;;6.50;89.20;;;;;;4881342;29;20085;-87
2022/04/20 04:14:41;;;;;;;2.00;1.00;;;6.70;89.00;;;;;;4880178;29;20036;-86
2022/04/20 04:17:08;;;;;;;2.15;0.90;;;6.50;89.10;;;;;;4879807;29;20068;-86
2022/04/20 04:19:35;;;;;;;2.78;0.82;;;6.50;89.00;;;;;;4881879;29;20065;-86
2022/04/20 04:22:04;;;;;;;2.95;0.98;;;6.50;88.60;;;;;;4883262;29;20116;-86
2022/04/20 04:24:36;;;;;;;1.83;1.05;;;6.50;88.80;;;;;;4885304;29;20032;-86
2022/04/20 04:27:05;;;;;;;2.63;1.08;;;6.40;88.70;;;;;;4899937;29;20025;-86
2022/04/20 04:29:31;;;;;;;2.28;0.82;;;6.40;89.00;;;;;;4933406;29;20647;-86
2022/04/20 04:31:58;;;;;;;1.70;0.77;;;6.40;89.10;;;;;;4929557;29;20029;-86
2022/04/20 04:34:24;;;;;;;2.53;0.93;;;6.40;89.60;;;;;;4880920;29;20036;-86
2022/04/20 04:36:54;;;;;;;1.38;0.52;;;6.40;89.20;;;;;;4879989;29;20134;-86
2022/04/20 04:39:21;;;;;;;1.52;0.80;;;6.40;89.20;;;;;;4881560;29;20032;-86
2022/04/20 04:41:48;;;;;;;1.83;0.73;;;6.50;89.40;;;;;;4877372;29;20029;-86
2022/04/20 04:44:18;;;;;;;2.97;0.98;;;6.50;89.10;;;;;;4877229;29;20519;-86
2022/04/20 04:49:28;;;;;;;2.28;0.75;;;6.50;88.90;;;;;;4878638;29;20039;-86
2022/04/20 04:51:55;;;;;;;3.22;0.90;;;6.50;88.40;;;;;;4877034;29;20028;-86
2022/04/20 04:54:22;;;;;;;2.92;1.35;;;6.60;89.10;;;;;;4878291;29;20381;-86
2022/04/20 04:56:47;;;;;;;3.72;1.15;;;6.60;88.40;;;;;;4899820;29;20080;-86
2022/04/20 04:59:18;;;;;;;1.67;0.70;;;6.60;88.10;;;;;;4882744;29;20041;-86
2022/04/20 05:01:44;;;;;;;2.35;0.93;;;7.00;87.90;;;;;;4876901;29;20488;-86
2022/04/20 05:04:11;;;;;;;2.30;0.90;;;6.70;87.70;;;;;;4878041;29;20021;-86
2022/04/20 05:06:37;;;;;;;1.58;0.80;;;6.70;87.60;;;;;;4876436;29;20107;-86
2022/04/20 05:09:02;;;;;;;1.73;0.57;;;6.70;87.70;;;;;;4883103;29;20032;-86
2022/04/20 05:11:28;;;;;;;1.25;0.70;;;6.70;87.30;;;;;;4896311;29;20024;-86
2022/04/20 05:13:54;;;;;;;4.28;0.73;;;7.00;87.00;;;;;;4894727;29;20021;-86
2022/04/20 05:16:20;;;;;;;1.52;0.60;;;6.90;87.20;;;;;;4894872;29;20025;-86
2022/04/20 05:18:46;;;;;;;1.77;0.80;;;6.90;86.50;;;;;;4888706;29;20405;-87
2022/04/20 05:21:12;;;;;;;2.28;0.60;;;7.00;86.40;;;;;;4876825;29;20028;-87
2022/04/20 05:23:37;;;;;;;5.43;0.80;;;7.00;86.30;;;;;;4878076;29;20036;-87
2022/04/20 05:26:03;;;;;;;1.63;0.73;;;7.00;86.50;;;;;;4886262;29;20465;-87
2022/04/20 05:28:28;;;;;;;2.42;0.80;;;7.10;86.40;;;;;;4913695;29;20073;-87
2022/04/20 05:30:54;;;;;;;1.90;0.75;;;7.10;86.30;;;;;;4877805;29;20480;-87
2022/04/20 05:33:20;;;;;;;3.33;0.90;;;7.20;87.10;;;;;;4877621;29;20381;-87
2022/04/20 05:35:46;;;;;;;1.77;0.70;;;7.20;86.20;;;;;;4876312;29;20112;-88
2022/04/20 05:43:49;;;;;;;2.80;0.80;;;7.30;85.80;;;;;;4877888;29;20107;-88
2022/04/20 05:46:22;;;;;;;1.95;0.70;;;7.30;86.00;;;;;;4875862;29;20531;-87
2022/04/20 05:48:47;;;;;;;2.45;0.70;;;7.40;85.00;;;;;;4891532;29;20040;-88
2022/04/20 05:51:16;;;;;;;2.03;0.98;;;7.30;85.50;;;;;;4877382;29;20025;-88
2022/04/20 05:53:41;;;;;;;2.47;0.88;;;7.20;86.00;;;;;;4891580;29;20048;-87
2022/04/20 05:56:24;;;;;;;2.47;0.93;;;7.30;86.10;;;;;;4904319;29;20028;-88
2022/04/20 05:58:59;;;;;;;1.70;0.68;;;7.40;86.00;;;;;;4913315;29;20051;-88
2022/04/20 06:01:26;;;;;;;3.83;1.00;;;7.50;85.80;;;;;;4913294;29;20039;-88
2022/04/20 06:03:55;;;;;;;2.60;0.90;;;7.50;85.40;;;;;;4884347;29;20047;-87
2022/04/20 06:06:23;;;;;;;2.83;0.95;;;7.70;85.10;;;;;;4876927;29;20047;-87
2022/04/20 06:08:51;;;;;;;2.70;0.70;;;7.70;85.70;;;;;;4875709;29;20506;-87
2022/04/20 06:11:17;;;;;;;2.10;0.70;;;7.90;85.40;;;;;;4877202;29;20540;-88
2022/04/20 06:13:43;;;;;;;1.63;0.93;;;8.20;85.60;;;;;;4877023;29;20112;-87
2022/04/20 06:16:10;;;;;;;2.42;1.00;;;7.90;83.90;;;;;;4894591;29;20021;-87
2022/04/20 06:18:43;;;;;;;3.20;0.98;;;7.80;83.60;;;;;;4895211;29;20536;-87
2022/04/20 06:21:11;;;;;;;2.25;0.80;;;8.00;84.20;;;;;;4895262;29;20043;-87
2022/04/20 06:23:40;;;;;;;1.98;0.77;;;7.80;83.50;;;;;;4880859;29;20036;-88
2022/04/20 06:26:14;;;;;;;1.85;0.82;;;7.70;83.20;;;;;;4872899;29;20044;-87
2022/04/20 06:28:45;;;;;;;2.15;0.70;;;7.80;83.70;;;;;;4928572;29;20040;-87
2022/04/20 06:31:11;;;;;;;1.60;0.80;;;7.90;83.00;;;;;;4881065;29;20029;-88
2022/04/20 06:33:37;;;;;;;1.50;0.80;;;7.90;83.40;;;;;;4881040;29;20044;-86
2022/04/20 06:36:02;;;;;;;2.65;1.00;;;7.90;83.00;;;;;;4879435;29;20405;-87
2022/04/20 06:38:28;;;;;;;1.58;0.60;;;7.90;83.50;;;;;;4879439;29;20488;-87
2022/04/20 06:40:54;;;;;;;1.85;0.85;;;7.90;84.70;;;;;;4879317;29;20449;-86
2022/04/20 06:43:23;;;;;;;1.67;0.95;;;7.90;84.30;;;;;;4879308;29;20028;-87
2022/04/20 06:45:48;;;;;;;1.88;0.73;;;8.20;84.90;;;;;;4880438;29;20067;-86
2022/04/20 06:48:14;;;;;;;1.60;0.75;;;8.20;83.70;;;;;;4894481;29;20539;-87
2022/04/20 06:50:40;;;;;;;3.88;0.80;;;8.20;83.40;;;;;;4894522;29;20136;-87
2022/04/20 06:58:38;;;;;;;1.73;0.90;;;8.40;84.30;;;;;;4879686;29;20056;-87
2022/04/20 07:01:07;;;;;;;1.83;0.70;;;8.40;83.40;;;;;;4879160;29;20025;-87
2022/04/20 07:03:36;;;;;;;2.25;1.08;;;8.50;83.70;;;;;;4880033;29;20055;-87
2022/04/20 07:06:07;;;;;;;2.65;1.00;;;8.70;83.10;;;;;;4878588;29;20116;-87
2022/04/20 07:08:33;;;;;;;2.13;0.90;;;8.60;82.80;;;;;;4878700;29;20037;-87
2022/04/20 07:11:04;;;;;;;3.95;0.73;;;8.70;82.40;;;;;;4878819;29;20033;-87
2022/04/20 07:13:33;;;;;;;2.85;0.98;;;8.80;82.10;;;;;;4878601;29;20431;-87
2022/04/20 07:16:01;;;;;;;2.10;1.00;;;8.80;82.00;;;;;;4893922;29;20048;-88
2022/04/20 07:18:27;;;;;;;2.63;1.00;;;8.90;81.60;;;;;;4878563;29;20530;-87
2022/04/20 07:20:52;;;;;;;2.78;1.10;;;9.10;81.00;;;;;;4878624;29;20037;-87
2022/04/20 07:23:18;;;;;;;2.42;1.00;;;9.20;80.90;;;;;;4880008;29;20124;-87
2022/04/20 07:25:47;;;;;;;2.83;1.15;;;9.20;80.60;;;;;;4892073;29;20399;-87
2022/04/20 07:28:12;;;;;;;2.65;1.35;;;9.10;81.50;;;;;;4928413;29;20036;-88
2022/04/20 07:30:43;;;;;;;4.40;0.90;;;9.10;81.50;;;;;;4927354;29;20503;-87
2022/04/20 07:33:09;;;;;;;2.70;0.90;;;9.30;81.60;;;;;;4900728;29;20033;-88
2022/04/20 07:35:35;;;;;;;3.42;1.40;;;9.50;81.60;;;;;;4915854;29;20039;-87
2022/04/20 07:38:00;;;;;;;4.95;1.20;;;9.60;81.30;;;;;;4913950;29;20050;-87
2022/04/20 07:40:26;;;;;;;4.30;1.10;;;9.70;80.60;;;;;;4914841;29;20502;-87
2022/04/20 07:42:54;;;;;;;2.13;0.90;;;9.80;80.30;;;;;;4915771;29;20028;-87
2022/04/20 07:45:20;;;;;;;2.17;1.00;;;9.90;79.60;;;;;;4915739;29;20125;-87
2022/04/20 07:47:46;;;;;;;2.88;1.08;;;10.10;78.10;;;;;;4902836;29;20044;-88
2022/04/20 07:50:24;;;;;;;2.20;0.88;;;10.10;79.60;;;;;;4915654;29;20032;-87
2022/04/20 07:52:51;;;;;;;2.88;1.10;;;10.10;78.70;;;;;;4915387;29;20088;-86
2022/04/20 07:55:25;;;;;;;3.08;1.17;;;10.20;77.90;;;;;;4906291;29;20033;-87
2022/04/20 07:57:52;;;;;;;3.20;1.20;;;10.30;78.70;;;;;;4919216;23;20713;-88
2022/04/20 08:00:19;;;;;;;2.65;1.10;;;10.30;78.00;;;;;;4923467;29;20036;-90
2022/04/20 08:02:46;;;;;;;3.47;1.15;;;10.50;78.10;;;;;;4922232;29;20032;-89
2022/04/20 08:05:15;;;;;;;3.42;1.30;;;10.40;78.10;;;;;;4936086;29;20030;-89
2022/04/20 08:07:43;;;;;;;2.20;0.98;;;10.60;77.90;;;;;;4941950;29;20094;-90
2022/04/20 08:10:12;;;;;;;3.40;1.33;;;10.70;78.00;;;;;;4941186;29;20036;-89
2022/04/20 08:12:42;;;;;;;2.50;1.15;;;10.80;77.80;;;;;;4925674;29;20036;-89
2022/04/20 08:15:09;;;;;;;2.95;1.15;;;10.80;76.70;;;;;;4942821;29;20039;-90
2022/04/20 08:17:36;;;;;;;4.13;1.30;;;11.00;77.50;;;;;;4924219;29;20055;-89
2022/04/20 08:20:18;;;;;;;2.13;1.00;;;11.00;76.30;;;;;;4942958;29;20030;-87
2022/04/20 08:22:45;;;;;;;2.17;1.00;;;11.10;77.20;;;;;;4959849;29;20110;-89
2022/04/20 08:25:13;;;;;;;2.58;1.17;;;11.00;75.70;;;;;;4940535;29;20086;-88
2022/04/20 08:27:40;;;;;;;4.00;1.40;;;11.20;76.60;;;;;;4936221;29;20038;-87
2022/04/20 08:30:12;;;;;;;4.50;1.17;;;11.30;75.70;;;;;;4919613;29;20032;-88
2022/04/20 08:32:42;;;;;;;2.30;1.00;;;11.30;75.70;;;;;;4921847;29;20025;-89
2022/04/20 08:35:08;;;;;;;1.85;1.02;;;11.50;75.30;;;;;;4922114;29;20115;-88
2022/04/20 08:37:33;;;;;;;3.53;1.10;;;11.50;73.90;;;;;;4920253;29;20024;-87
2022/04/20 08:39:59;;;;;;;2.42;1.00;;;11.50;74.20;;;;;;4920574;29;20344;-88
2022/04/20 08:42:30;;;;;;;2.55;1.10;;;11.60;73.80;;;;;;4900359;29;20028;-88
2022/04/20 08:45:01;;;;;;;2.38;0.93;;;11.70;73.40;;;;;;4931456;29;20101;-88
2022/04/20 08:47:29;;;;;;;3.42;1.10;;;11.70;72.00;;;;;;4940081;29;20091;-88
2022/04/20 08:49:57;;;;;;;1.73;0.88;;;11.80;72.90;;;;;;4942339;29;20023;-88
2022/04/20 08:52:42;;;;;;;2.30;0.93;;;12.00;73.00;;;;;;4925521;29;20090;-87
2022/04/20 08:55:10;;;;;;;4.00;0.90;;;12.00;72.00;;;;;;4941603;29;20031;-88
2022/04/20 08:57:37;;;;;;;2.47;1.10;;;12.20;72.20;;;;;;4938247;29;20119;-88
2022/04/20 09:00:09;;;;;;;2.17;1.05;;;12.20;71.60;;;;;;4943308;29;20038;-88
2022/04/20 09:02:38;;;;;;;2.78;1.20;;;12.10;72.40;;;;;;4943057;29;20028;-89
2022/04/20 09:05:05;;;;;;;2.33;0.82;;;12.00;70.80;;;;;;4941964;29;20027;-88
2022/04/20 09:07:32;;;;;;;2.63;1.20;;;12.10;71.60;;;;;;4942342;29;20474;-87
2022/04/20 09:10:05;;;;;;;2.75;1.10;;;12.30;71.50;;;;;;4942419;29;20111;-88
2022/04/20 09:12:31;;;;;;;2.40;0.80;;;12.30;71.50;;;;;;4942137;29;20024;-88
2022/04/20 09:15:01;;;;;;;2.03;1.00;;;12.60;71.50;;;;;;4924807;29;20079;-88
2022/04/20 09:17:32;;;;;;;2.20;1.00;;;12.80;70.60;;;;;;4925010;29;20027;-88
2022/04/20 09:20:06;;;;;;;2.33;1.00;;;12.80;68.70;;;;;;4925357;29;20027;-88
2022/04/20 09:22:32;;;;;;;2.58;0.95;;;12.70;68.70;;;;;;4927259;29;20036;-88
2022/04/20 09:24:58;;;;;;;3.92;1.02;;;12.90;70.80;;;;;;4925313;29;20032;-88
2022/04/20 09:27:26;;;;;;;3.60;0.88;;;13.20;69.80;;;;;;4929042;29;20474;-88
2022/04/20 09:29:59;;;;;;;1.38;0.60;;;13.20;69.50;;;;;;4918607;29;20016;-88
2022/04/20 09:32:46;;;;;;;2.05;0.77;;;13.50;68.00;;;;;;4933112;29;20030;-88
2022/04/20 09:35:21;;;;;;;1.85;0.80;;;13.50;65.80;;;;;;4946099;29;20038;-88
2022/04/20 09:38:03;;;;;;;2.28;0.95;;;13.50;67.10;;;;;;4927081;29;20679;-87
2022/04/20 09:51:05;;;;;;;;;;;;;;;;;;;;;
2022/04/20 09:57:36;;;;;;;;;;;;;;;;;;;;;
2022/04/20 10:07:08;;;;;;;2.10;1.10;;;14.60;64.40;;;;;;4902551;29;20430;-92
2022/04/20 10:09:45;;;;;;;2.22;0.80;;;14.60;63.40;;;;;;4907277;29;20032;-92
2022/04/20 10:12:55;;;;;;;1.50;0.70;;;14.40;61.70;;;;;;4925840;29;20063;-93
2022/04/20 10:18:31;;;;;;;;;;;;;;;;;;;;;
2022/04/20 10:25:21;;;;;;;;;;;;;;;;;;;;;
2022/04/20 10:28:33;;;;;;;1.70;0.80;;;14.80;62.80;;;;;;4940754;23;20124;-90
2022/04/20 10:35:17;;;;;;;2.45;0.85;;;14.60;59.90;;;;;;4887937;29;19920;-91
2022/04/20 10:38:35;;;;;;;;;;;;;;;;;;;;;
2022/04/20 11:05:22;;;;;;;3.05;0.80;;;15.90;58.80;;;;;;4897878;29;20448;-92
2022/04/20 11:08:57;;;;;;;2.97;0.93;;;16.20;58.30;;;;;;4912602;29;20042;-92
2022/04/20 11:24:48;;;;;;;2.67;0.80;;;16.20;56.90;;;;;;4809777;29;20053;-92
2022/04/20 11:36:55;;;;;;;4.57;1.00;;;16.90;57.00;;;;;;4851452;29;20047;-93
2022/04/20 11:40:14;;;;;;;1.63;0.73;;;17.00;56.70;;;;;;4852659;29;20025;-92
2022/04/20 11:43:26;;;;;;;1.30;0.52;;;17.20;55.80;;;;;;4851471;29;20084;-92
2022/04/20 11:46:21;;;;;;;2.05;0.70;;;17.10;57.10;;;;;;4873323;29;20032;-92
2022/04/20 11:59:21;;;;;;;1.88;0.90;;;17.00;54.90;;;;;;1228250;23;20055;-92
2022/04/20 12:01:53;;;;;;;2.60;1.17;;;17.10;55.00;;;;;;4965744;28;20516;-93
2022/04/20 12:04:21;;;;;;;2.13;0.93;;;17.30;54.10;;;;;;4976243;28;20057;-91
2022/04/20 14:01:08;;;;;;;1.05;0.50;;;20.20;46.40;;;;;;4962043;26;20449;-91
2022/04/20 14:03:34;;;;;;;1.40;0.75;;;20.90;46.10;;;;;;4941157;29;20041;-91
2022/04/20 14:06:00;;;;;;;1.70;0.90;;;20.30;45.50;;;;;;4947353;29;20016;-90
2022/04/20 14:08:38;;;;;;;1.60;0.60;;;20.10;46.10;;;;;;4961878;28;20073;-90
2022/04/20 14:11:04;;;;;;;2.50;0.70;;;20.60;46.60;;;;;;4966834;28;20030;-90
2022/04/20 14:13:29;;;;;;;1.27;0.60;;;20.50;45.80;;;;;;4958207;28;20034;-90
2022/04/20 14:15:57;;;;;;;1.52;0.60;;;20.90;45.60;;;;;;4956583;29;20405;-89
2022/04/20 14:18:24;;;;;;;0.98;0.52;;;20.90;45.20;;;;;;4938811;28;20027;-89
2022/04/20 14:20:49;;;;;;;1.95;0.60;;;20.80;44.60;;;;;;4960521;28;20677;-90
2022/04/20 14:23:15;;;;;;;1.20;0.55;;;20.90;44.30;;;;;;4958272;28;20035;-90
2022/04/20 14:33:58;;;;;;;1.20;0.50;;;21.00;44.80;;;;;;4976899;28;20038;-90
2022/04/20 14:36:24;;;;;;;1.70;0.77;;;21.30;45.50;;;;;;4949432;28;20060;-89
2022/04/20 14:38:50;;;;;;;0.98;0.55;;;21.30;44.80;;;;;;4943232;29;20236;-90
2022/04/20 14:41:19;;;;;;;2.38;0.88;;;21.70;44.40;;;;;;4942806;29;20037;-90
2022/04/20 14:43:45;;;;;;;2.03;0.82;;;21.50;44.10;;;;;;4948779;28;20026;-90
2022/04/20 14:46:13;;;;;;;1.65;0.52;;;21.70;44.60;;;;;;4964480;28;20030;-89
2022/04/20 14:48:39;;;;;;;1.60;0.68;;;21.80;45.40;;;;;;4963311;28;20054;-90
2022/04/20 14:51:14;;;;;;;2.28;0.70;;;21.50;45.30;;;;;;4963345;28;20026;-89
2022/04/20 14:53:40;;;;;;;1.45;0.70;;;21.50;44.40;;;;;;4961560;29;20068;-90
2022/04/20 14:56:14;;;;;;;1.60;0.60;;;21.70;44.50;;;;;;4943319;29;20489;-90
2022/04/20 14:58:40;;;;;;;2.10;0.80;;;21.80;44.20;;;;;;4942826;29;20024;-90
2022/04/20 15:01:06;;;;;;;1.60;0.80;;;21.80;44.10;;;;;;4964518;28;20027;-90
2022/04/20 15:03:31;;;;;;;1.85;0.70;;;21.80;43.80;;;;;;4962446;28;20031;-90
2022/04/20 15:06:00;;;;;;;1.40;0.65;;;21.80;44.30;;;;;;4978991;28;20027;-89
2022/04/20 15:08:26;;;;;;;1.00;0.50;;;21.80;41.80;;;;;;4977684;28;20034;-90
2022/04/20 15:10:51;;;;;;;1.05;0.60;;;21.30;43.00;;;;;;4975842;28;20647;-90
2022/04/20 15:13:23;;;;;;;2.13;0.85;;;21.40;44.00;;;;;;4959899;28;20540;-88
2022/04/20 15:15:48;;;;;;;1.67;0.68;;;21.40;44.20;;;;;;4959564;28;20030;-90
2022/04/20 15:18:15;;;;;;;1.35;0.70;;;21.70;44.70;;;;;;4952121;29;20031;-90
2022/04/20 15:20:41;;;;;;;1.65;0.73;;;21.70;43.80;;;;;;4954567;29;20036;-90
2022/04/20 15:23:08;;;;;;;1.95;0.88;;;21.80;43.70;;;;;;4957509;29;20409;-90
2022/04/20 15:25:33;;;;;;;2.38;0.68;;;21.60;44.10;;;;;;4944466;28;20476;-90
2022/04/20 15:28:02;;;;;;;1.30;0.68;;;21.20;44.70;;;;;;4955589;29;20067;-90
2022/04/20 15:30:35;;;;;;;1.20;0.63;;;21.10;45.10;;;;;;4939152;29;20034;-90
2022/04/20 15:33:01;;;;;;;1.73;0.70;;;21.00;45.20;;;;;;4939349;29;20028;-90
2022/04/20 15:35:26;;;;;;;2.47;0.80;;;20.90;45.60;;;;;;4939677;29;20062;-91
2022/04/20 15:37:55;;;;;;;1.75;0.80;;;21.10;44.90;;;;;;4955685;28;20047;-90
2022/04/20 15:40:21;;;;;;;1.60;0.60;;;20.90;44.50;;;;;;4956198;29;20058;-90
2022/04/20 15:42:47;;;;;;;1.60;0.63;;;21.00;45.10;;;;;;4940248;29;20027;-87
2022/04/20 15:45:16;;;;;;;1.52;0.60;;;20.70;44.90;;;;;;4955646;29;20027;-90
2022/04/20 15:47:42;;;;;;;3.33;0.90;;;20.40;45.30;;;;;;4957570;28;20118;-90
2022/04/20 15:50:08;;;;;;;2.85;0.98;;;20.20;45.40;;;;;;4976343;28;20054;-89
2022/04/20 15:52:33;;;;;;;1.77;0.77;;;19.40;46.70;;;;;;4975668;28;20038;-89
2022/04/20 16:00:28;;;;;;;1.77;0.65;;;17.60;49.30;;;;;;4955418;28;20860;-86
2022/04/20 16:02:54;;;;;;;2.15;0.90;;;17.40;49.80;;;;;;4974058;28;20154;-90
2022/04/20 16:05:24;;;;;;;2.35;0.90;;;17.20;50.10;;;;;;4975658;28;20118;-89
2022/04/20 16:07:53;;;;;;;1.48;0.50;;;17.00;50.20;;;;;;4957900;28;20110;-90
2022/04/20 16:10:21;;;;;;;2.30;0.82;;;16.90;50.50;;;;;;4959743;28;20205;-90
2022/04/20 16:12:48;;;;;;;1.63;0.75;;;16.80;50.50;;;;;;4938339;29;20027;-89
2022/04/20 16:15:14;;;;;;;2.60;0.98;;;16.80;51.10;;;;;;4947579;28;20043;-90
2022/04/20 16:17:42;;;;;;;1.58;0.70;;;16.70;51.90;;;;;;4943851;28;20366;-89
2022/04/20 16:20:09;;;;;;;1.70;0.65;;;16.50;51.30;;;;;;4977464;28;20027;-89
2022/04/20 16:22:35;;;;;;;1.73;0.75;;;16.30;52.00;;;;;;4973245;28;20019;-88
2022/04/20 16:25:03;;;;;;;4.13;0.95;;;16.20;52.10;;;;;;4996027;28;20031;-89
2022/04/20 16:27:28;;;;;;;2.15;0.93;;;16.20;51.80;;;;;;4974711;28;20039;-89
2022/04/20 16:29:54;;;;;;;1.77;0.75;;;16.00;52.60;;;;;;4986301;28;20042;-89
2022/04/20 16:32:22;;;;;;;1.95;0.80;;;16.00;52.90;;;;;;4971013;28;20042;-88
2022/04/20 16:34:48;;;;;;;2.00;0.70;;;16.00;52.80;;;;;;4989274;28;20039;-88
2022/04/20 16:37:14;;;;;;;1.63;0.80;;;15.90;52.40;;;;;;4991060;28;20113;-89
2022/04/20 16:39:39;;;;;;;2.33;0.90;;;16.00;53.20;;;;;;4958032;28;20026;-90
2022/04/20 16:42:06;;;;;;;1.48;0.70;;;15.90;53.30;;;;;;4953763;29;20023;-89
2022/04/20 16:44:32;;;;;;;1.48;0.70;;;15.80;53.20;;;;;;4938068;29;20035;-89
2022/04/20 16:46:57;;;;;;;2.55;0.80;;;15.60;52.40;;;;;;4937436;29;20028;-89
2022/04/20 16:49:23;;;;;;;1.63;0.70;;;15.70;52.40;;;;;;4957218;28;20050;-89
2022/04/20 16:51:52;;;;;;;1.70;0.88;;;15.50;52.50;;;;;;4956833;28;20629;-89
2022/04/20 16:54:18;;;;;;;2.55;0.90;;;15.40;52.90;;;;;;4983374;28;20173;-89
2022/04/20 16:56:44;;;;;;;1.65;0.57;;;15.30;52.60;;;;;;4965776;28;20042;-89
2022/04/20 16:59:13;;;;;;;2.55;0.80;;;15.30;52.80;;;;;;4963805;28;20035;-89